sensor_id;sensor_type;location;lat;lon;timestamp;noise_LAeq;noise_LA_min;noise_LA_max;noise_LA01;noise_LA95
58251;Laerm;51449;51.676;5.812;2023-06-26T00:00:54;39.14;30.95;54.70;;
58251;Laerm;51449;51.676;5.812;2023-06-26T00:03:16;38.51;30.57;49.04;;
58251;Laerm;51449;51.676;5.812;2023-06-26T00:05:38;38.42;30.12;49.40;;
58251;Laerm;51449;51.676;5.812;2023-06-26T00:08:00;46.44;30.75;63.94;;
58251;Laerm;51449;51.676;5.812;2023-06-26T00:10:22;45.80;30.64;61.88;;
58251;Laerm;51449;51.676;5.812;2023-06-26T00:12:43;57.82;30.44;73.56;;
58251;Laerm;51449;51.676;5.812;2023-06-26T00:15:06;45.06;30.65;61.21;;
58251;Laerm;51449;51.676;5.812;2023-06-26T00:17:29;53.93;30.69;69.37;;
58251;Laerm;51449;51.676;5.812;2023-06-26T00:19:51;38.38;29.61;49.66;;
58251;Laerm;51449;51.676;5.812;2023-06-26T00:22:13;49.55;30.92;66.56;;
58251;Laerm;51449;51.676;5.812;2023-06-26T00:24:34;38.33;29.95;49.32;;
58251;Laerm;51449;51.676;5.812;2023-06-26T00:26:56;38.31;30.34;49.03;;
58251;Laerm;51449;51.676;5.812;2023-06-26T00:29:19;54.28;31.04;68.63;;
58251;Laerm;51449;51.676;5.812;2023-06-26T00:31:41;53.17;31.27;69.39;;
58251;Laerm;51449;51.676;5.812;2023-06-26T00:34:03;38.32;30.24;49.50;;
58251;Laerm;51449;51.676;5.812;2023-06-26T00:36:25;38.90;30.05;54.01;;
58251;Laerm;51449;51.676;5.812;2023-06-26T00:38:48;38.47;30.15;49.27;;
58251;Laerm;51449;51.676;5.812;2023-06-26T00:41:10;38.96;31.87;49.04;;
58251;Laerm;51449;51.676;5.812;2023-06-26T00:43:34;56.70;35.29;73.06;;
58251;Laerm;51449;51.676;5.812;2023-06-26T00:45:56;55.16;32.11;71.27;;
58251;Laerm;51449;51.676;5.812;2023-06-26T00:48:18;40.68;31.26;54.94;;
58251;Laerm;51449;51.676;5.812;2023-06-26T00:50:42;47.00;31.68;64.80;;
58251;Laerm;51449;51.676;5.812;2023-06-26T00:53:04;52.19;32.92;67.82;;
58251;Laerm;51449;51.676;5.812;2023-06-26T00:55:27;49.01;33.24;64.34;;
58251;Laerm;51449;51.676;5.812;2023-06-26T00:57:49;38.87;31.44;50.85;;
58251;Laerm;51449;51.676;5.812;2023-06-26T01:00:12;40.84;32.52;53.38;;
58251;Laerm;51449;51.676;5.812;2023-06-26T01:02:34;39.32;32.55;59.25;;
58251;Laerm;51449;51.676;5.812;2023-06-26T01:04:58;38.99;32.34;49.92;;
58251;Laerm;51449;51.676;5.812;2023-06-26T01:07:20;53.57;32.60;70.39;;
58251;Laerm;51449;51.676;5.812;2023-06-26T01:09:43;52.57;32.15;69.25;;
58251;Laerm;51449;51.676;5.812;2023-06-26T01:12:05;39.81;33.17;50.05;;
58251;Laerm;51449;51.676;5.812;2023-06-26T01:14:27;48.72;31.87;65.46;;
58251;Laerm;51449;51.676;5.812;2023-06-26T01:16:50;50.56;32.25;68.32;;
58251;Laerm;51449;51.676;5.812;2023-06-26T01:19:28;48.40;32.28;66.81;;
58251;Laerm;51449;51.676;5.812;2023-06-26T01:21:56;54.66;31.74;69.82;;
58251;Laerm;51449;51.676;5.812;2023-06-26T01:24:20;43.18;32.07;59.46;;
58251;Laerm;51449;51.676;5.812;2023-06-26T01:26:44;47.47;31.64;65.46;;
58251;Laerm;51449;51.676;5.812;2023-06-26T01:29:10;48.29;30.89;63.14;;
58251;Laerm;51449;51.676;5.812;2023-06-26T01:31:35;38.87;31.19;57.92;;
58251;Laerm;51449;51.676;5.812;2023-06-26T01:33:58;51.37;31.88;67.44;;
58251;Laerm;51449;51.676;5.812;2023-06-26T01:36:21;56.90;33.66;69.46;;
58251;Laerm;51449;51.676;5.812;2023-06-26T01:38:43;46.88;32.98;67.55;;
58251;Laerm;51449;51.676;5.812;2023-06-26T01:41:06;49.44;35.06;68.30;;
58251;Laerm;51449;51.676;5.812;2023-06-26T01:46:34;45.17;38.79;52.28;;
58251;Laerm;51449;51.676;5.812;2023-06-26T01:54:51;54.61;42.19;66.21;;
58251;Laerm;51449;51.676;5.812;2023-06-26T01:57:17;52.13;40.18;69.45;;
58251;Laerm;51449;51.676;5.812;2023-06-26T01:59:40;57.09;42.41;75.07;;
58251;Laerm;51449;51.676;5.812;2023-06-26T02:02:07;60.27;44.14;75.70;;
58251;Laerm;51449;51.676;5.812;2023-06-26T02:04:31;59.17;45.75;73.38;;
58251;Laerm;51449;51.676;5.812;2023-06-26T02:06:53;60.49;49.77;72.50;;
58251;Laerm;51449;51.676;5.812;2023-06-26T02:09:16;52.98;43.69;60.77;;
58251;Laerm;51449;51.676;5.812;2023-06-26T02:11:38;56.89;45.21;69.73;;
58251;Laerm;51449;51.676;5.812;2023-06-26T02:13:59;57.64;48.26;67.01;;
58251;Laerm;51449;51.676;5.812;2023-06-26T02:16:21;55.27;42.50;66.24;;
58251;Laerm;51449;51.676;5.812;2023-06-26T02:18:43;57.61;46.02;69.63;;
58251;Laerm;51449;51.676;5.812;2023-06-26T02:21:07;56.40;45.30;67.24;;
58251;Laerm;51449;51.676;5.812;2023-06-26T02:23:28;60.64;46.04;73.71;;
58251;Laerm;51449;51.676;5.812;2023-06-26T02:25:51;58.37;45.83;70.95;;
58251;Laerm;51449;51.676;5.812;2023-06-26T02:28:13;58.34;46.29;68.33;;
58251;Laerm;51449;51.676;5.812;2023-06-26T02:30:36;56.46;44.39;68.09;;
58251;Laerm;51449;51.676;5.812;2023-06-26T02:32:58;61.56;44.85;78.15;;
58251;Laerm;51449;51.676;5.812;2023-06-26T02:35:20;60.06;44.21;79.25;;
58251;Laerm;51449;51.676;5.812;2023-06-26T02:37:42;61.77;43.20;77.57;;
58251;Laerm;51449;51.676;5.812;2023-06-26T02:40:04;57.44;43.02;78.23;;
58251;Laerm;51449;51.676;5.812;2023-06-26T02:42:27;62.93;43.75;79.82;;
58251;Laerm;51449;51.676;5.812;2023-06-26T02:44:49;59.84;41.90;76.85;;
58251;Laerm;51449;51.676;5.812;2023-06-26T02:47:11;59.35;40.05;78.15;;
58251;Laerm;51449;51.676;5.812;2023-06-26T02:49:36;61.09;41.85;80.69;;
58251;Laerm;51449;51.676;5.812;2023-06-26T02:51:58;61.41;41.65;76.32;;
58251;Laerm;51449;51.676;5.812;2023-06-26T02:54:22;63.80;42.59;78.49;;
58251;Laerm;51449;51.676;5.812;2023-06-26T02:56:47;66.59;43.27;80.06;;
58251;Laerm;51449;51.676;5.812;2023-06-26T02:59:14;72.26;40.48;87.98;;
58251;Laerm;51449;51.676;5.812;2023-06-26T03:01:36;75.30;40.60;89.12;;
58251;Laerm;51449;51.676;5.812;2023-06-26T03:03:58;53.85;39.92;66.21;;
58251;Laerm;51449;51.676;5.812;2023-06-26T03:06:22;61.11;39.99;76.20;;
58251;Laerm;51449;51.676;5.812;2023-06-26T03:08:44;63.27;44.08;77.10;;
58251;Laerm;51449;51.676;5.812;2023-06-26T03:11:08;72.75;38.81;87.06;;
58251;Laerm;51449;51.676;5.812;2023-06-26T03:13:36;74.27;40.25;87.78;;
58251;Laerm;51449;51.676;5.812;2023-06-26T03:15:58;73.95;41.40;88.34;;
58251;Laerm;51449;51.676;5.812;2023-06-26T03:18:19;71.42;40.58;87.04;;
58251;Laerm;51449;51.676;5.812;2023-06-26T03:20:41;56.43;41.96;67.81;;
58251;Laerm;51449;51.676;5.812;2023-06-26T03:23:03;60.46;43.09;72.83;;
58251;Laerm;51449;51.676;5.812;2023-06-26T03:25:25;57.83;42.32;69.81;;
58251;Laerm;51449;51.676;5.812;2023-06-26T03:28:20;58.93;43.47;71.46;;
58251;Laerm;51449;51.676;5.812;2023-06-26T03:30:42;58.86;41.85;73.11;;
58251;Laerm;51449;51.676;5.812;2023-06-26T03:33:03;62.20;42.91;75.98;;
58251;Laerm;51449;51.676;5.812;2023-06-26T03:35:25;59.92;40.31;71.15;;
58251;Laerm;51449;51.676;5.812;2023-06-26T03:37:48;61.30;39.20;75.56;;
58251;Laerm;51449;51.676;5.812;2023-06-26T03:40:11;61.90;44.78;73.89;;
58251;Laerm;51449;51.676;5.812;2023-06-26T03:42:32;58.76;40.52;70.95;;
58251;Laerm;51449;51.676;5.812;2023-06-26T03:44:54;65.84;43.90;80.33;;
58251;Laerm;51449;51.676;5.812;2023-06-26T03:47:16;71.87;41.91;88.99;;
58251;Laerm;51449;51.676;5.812;2023-06-26T03:49:38;65.02;39.05;80.38;;
58251;Laerm;51449;51.676;5.812;2023-06-26T03:51:59;65.58;38.69;80.72;;
58251;Laerm;51449;51.676;5.812;2023-06-26T03:54:21;65.02;41.03;77.77;;
58251;Laerm;51449;51.676;5.812;2023-06-26T03:56:43;60.92;43.74;72.10;;
58251;Laerm;51449;51.676;5.812;2023-06-26T03:59:04;69.11;41.12;82.61;;
58251;Laerm;51449;51.676;5.812;2023-06-26T04:01:26;67.81;43.74;82.90;;
58251;Laerm;51449;51.676;5.812;2023-06-26T04:03:49;59.38;41.49;71.64;;
58251;Laerm;51449;51.676;5.812;2023-06-26T04:06:10;62.30;40.78;74.17;;
58251;Laerm;51449;51.676;5.812;2023-06-26T04:08:32;60.29;42.36;71.06;;
58251;Laerm;51449;51.676;5.812;2023-06-26T04:10:54;62.14;41.67;75.20;;
58251;Laerm;51449;51.676;5.812;2023-06-26T04:13:19;61.08;42.39;70.42;;
58251;Laerm;51449;51.676;5.812;2023-06-26T04:15:40;61.77;45.29;73.42;;
58251;Laerm;51449;51.676;5.812;2023-06-26T04:18:02;64.86;44.91;76.86;;
58251;Laerm;51449;51.676;5.812;2023-06-26T04:20:24;66.39;42.49;76.70;;
58251;Laerm;51449;51.676;5.812;2023-06-26T04:22:46;62.54;42.71;75.87;;
58251;Laerm;51449;51.676;5.812;2023-06-26T04:25:09;60.80;41.28;70.34;;
58251;Laerm;51449;51.676;5.812;2023-06-26T04:27:33;62.07;40.82;77.77;;
58251;Laerm;51449;51.676;5.812;2023-06-26T04:29:58;65.89;41.58;80.72;;
58251;Laerm;51449;51.676;5.812;2023-06-26T04:32:19;67.23;41.11;80.66;;
58251;Laerm;51449;51.676;5.812;2023-06-26T04:34:41;72.08;46.81;88.87;;
58251;Laerm;51449;51.676;5.812;2023-06-26T04:37:06;75.07;47.55;89.45;;
58251;Laerm;51449;51.676;5.812;2023-06-26T04:39:27;73.82;47.73;88.72;;
58251;Laerm;51449;51.676;5.812;2023-06-26T04:41:49;71.76;44.40;86.76;;
58251;Laerm;51449;51.676;5.812;2023-06-26T04:44:11;62.95;41.62;72.35;;
58251;Laerm;51449;51.676;5.812;2023-06-26T04:46:33;60.84;42.48;74.47;;
58251;Laerm;51449;51.676;5.812;2023-06-26T04:48:55;63.06;42.62;70.99;;
58251;Laerm;51449;51.676;5.812;2023-06-26T04:51:19;66.59;44.42;84.41;;
58251;Laerm;51449;51.676;5.812;2023-06-26T04:53:42;71.18;41.15;85.40;;
58251;Laerm;51449;51.676;5.812;2023-06-26T04:56:04;63.57;47.62;73.16;;
58251;Laerm;51449;51.676;5.812;2023-06-26T04:58:25;66.81;42.01;82.21;;
58251;Laerm;51449;51.676;5.812;2023-06-26T05:00:47;65.55;41.65;74.55;;
58251;Laerm;51449;51.676;5.812;2023-06-26T05:03:12;64.68;45.74;73.14;;
58251;Laerm;51449;51.676;5.812;2023-06-26T05:05:34;64.61;41.18;73.67;;
58251;Laerm;51449;51.676;5.812;2023-06-26T05:07:56;65.75;44.21;76.80;;
58251;Laerm;51449;51.676;5.812;2023-06-26T05:10:18;65.14;44.08;76.93;;
58251;Laerm;51449;51.676;5.812;2023-06-26T05:12:39;67.44;50.62;80.28;;
58251;Laerm;51449;51.676;5.812;2023-06-26T05:15:01;68.77;46.65;81.30;;
58251;Laerm;51449;51.676;5.812;2023-06-26T05:17:23;72.63;46.20;87.30;;
58251;Laerm;51449;51.676;5.812;2023-06-26T05:19:46;72.01;50.38;88.35;;
58251;Laerm;51449;51.676;5.812;2023-06-26T05:22:08;65.49;46.70;81.75;;
58251;Laerm;51449;51.676;5.812;2023-06-26T05:24:30;68.44;48.77;83.96;;
58251;Laerm;51449;51.676;5.812;2023-06-26T05:26:53;70.98;45.86;84.66;;
58251;Laerm;51449;51.676;5.812;2023-06-26T05:29:15;71.22;46.90;85.20;;
58251;Laerm;51449;51.676;5.812;2023-06-26T05:31:41;71.16;49.25;85.76;;
58251;Laerm;51449;51.676;5.812;2023-06-26T05:34:03;72.33;47.37;87.27;;
58251;Laerm;51449;51.676;5.812;2023-06-26T05:36:26;67.24;44.72;83.92;;
58251;Laerm;51449;51.676;5.812;2023-06-26T05:38:50;63.86;47.31;74.50;;
58251;Laerm;51449;51.676;5.812;2023-06-26T05:41:12;66.59;46.69;75.94;;
58251;Laerm;51449;51.676;5.812;2023-06-26T05:43:34;67.35;48.53;90.91;;
58251;Laerm;51449;51.676;5.812;2023-06-26T05:45:57;68.59;49.65;81.35;;
58251;Laerm;51449;51.676;5.812;2023-06-26T05:48:21;69.04;51.69;83.20;;
58251;Laerm;51449;51.676;5.812;2023-06-26T05:50:44;68.27;49.15;82.64;;
58251;Laerm;51449;51.676;5.812;2023-06-26T05:53:07;65.26;49.22;75.64;;
58251;Laerm;51449;51.676;5.812;2023-06-26T05:55:29;69.20;47.49;84.09;;
58251;Laerm;51449;51.676;5.812;2023-06-26T05:57:52;67.24;51.34;86.02;;
58251;Laerm;51449;51.676;5.812;2023-06-26T06:00:15;62.82;47.32;74.88;;
58251;Laerm;51449;51.676;5.812;2023-06-26T06:02:38;66.31;51.40;83.98;;
58251;Laerm;51449;51.676;5.812;2023-06-26T06:05:00;62.39;44.60;74.03;;
58251;Laerm;51449;51.676;5.812;2023-06-26T06:07:22;63.26;49.48;72.59;;
58251;Laerm;51449;51.676;5.812;2023-06-26T06:09:44;64.15;45.14;81.39;;
58251;Laerm;51449;51.676;5.812;2023-06-26T06:12:07;64.74;50.46;75.29;;
58251;Laerm;51449;51.676;5.812;2023-06-26T06:14:29;67.34;46.02;80.84;;
58251;Laerm;51449;51.676;5.812;2023-06-26T06:16:50;68.57;46.52;83.51;;
58251;Laerm;51449;51.676;5.812;2023-06-26T06:19:12;66.27;49.60;79.24;;
58251;Laerm;51449;51.676;5.812;2023-06-26T06:21:35;65.59;43.45;79.34;;
58251;Laerm;51449;51.676;5.812;2023-06-26T06:23:56;68.78;48.69;80.66;;
58251;Laerm;51449;51.676;5.812;2023-06-26T06:26:18;68.22;42.48;80.53;;
58251;Laerm;51449;51.676;5.812;2023-06-26T06:28:40;64.93;41.43;78.95;;
58251;Laerm;51449;51.676;5.812;2023-06-26T06:31:02;68.10;52.77;82.20;;
58251;Laerm;51449;51.676;5.812;2023-06-26T06:33:24;65.18;48.85;76.76;;
58251;Laerm;51449;51.676;5.812;2023-06-26T06:35:46;60.55;47.25;75.16;;
58251;Laerm;51449;51.676;5.812;2023-06-26T06:38:07;62.86;47.94;71.32;;
58251;Laerm;51449;51.676;5.812;2023-06-26T06:40:29;61.54;45.30;71.20;;
58251;Laerm;51449;51.676;5.812;2023-06-26T06:42:51;63.48;48.15;73.26;;
58251;Laerm;51449;51.676;5.812;2023-06-26T06:45:13;73.04;47.55;88.24;;
58251;Laerm;51449;51.676;5.812;2023-06-26T06:47:34;65.22;49.54;80.15;;
58251;Laerm;51449;51.676;5.812;2023-06-26T06:49:56;71.15;48.93;86.26;;
58251;Laerm;51449;51.676;5.812;2023-06-26T06:52:18;71.34;46.98;86.47;;
58251;Laerm;51449;51.676;5.812;2023-06-26T06:54:56;72.29;47.98;88.05;;
58251;Laerm;51449;51.676;5.812;2023-06-26T06:57:24;72.86;44.01;88.89;;
58251;Laerm;51449;51.676;5.812;2023-06-26T06:59:45;71.33;49.58;85.89;;
58251;Laerm;51449;51.676;5.812;2023-06-26T07:02:08;71.09;50.04;85.43;;
58251;Laerm;51449;51.676;5.812;2023-06-26T07:04:30;68.66;46.70;85.12;;
58251;Laerm;51449;51.676;5.812;2023-06-26T07:06:52;61.37;40.44;74.37;;
58251;Laerm;51449;51.676;5.812;2023-06-26T07:09:14;65.63;47.38;80.33;;
58251;Laerm;51449;51.676;5.812;2023-06-26T07:11:36;64.13;41.69;75.69;;
58251;Laerm;51449;51.676;5.812;2023-06-26T07:13:58;61.79;44.25;71.49;;
58251;Laerm;51449;51.676;5.812;2023-06-26T07:16:19;63.12;49.65;74.23;;
58251;Laerm;51449;51.676;5.812;2023-06-26T07:18:41;66.59;46.97;83.84;;
58251;Laerm;51449;51.676;5.812;2023-06-26T07:21:03;61.61;48.00;73.37;;
58251;Laerm;51449;51.676;5.812;2023-06-26T07:23:25;71.85;46.27;85.86;;
58251;Laerm;51449;51.676;5.812;2023-06-26T07:25:47;67.93;46.69;85.09;;
58251;Laerm;51449;51.676;5.812;2023-06-26T07:28:12;63.10;41.47;76.56;;
58251;Laerm;51449;51.676;5.812;2023-06-26T07:30:33;66.99;48.90;82.89;;
58251;Laerm;51449;51.676;5.812;2023-06-26T07:32:55;64.58;48.71;73.34;;
58251;Laerm;51449;51.676;5.812;2023-06-26T07:35:17;63.86;48.66;76.27;;
58251;Laerm;51449;51.676;5.812;2023-06-26T07:37:39;63.04;47.88;73.39;;
58251;Laerm;51449;51.676;5.812;2023-06-26T07:40:03;63.95;48.65;75.04;;
58251;Laerm;51449;51.676;5.812;2023-06-26T07:42:25;72.51;43.98;86.16;;
58251;Laerm;51449;51.676;5.812;2023-06-26T07:44:47;73.47;46.44;87.68;;
58251;Laerm;51449;51.676;5.812;2023-06-26T07:47:09;72.87;46.21;86.93;;
58251;Laerm;51449;51.676;5.812;2023-06-26T07:49:31;70.29;43.91;85.12;;
58251;Laerm;51449;51.676;5.812;2023-06-26T07:51:53;67.66;41.29;82.20;;
58251;Laerm;51449;51.676;5.812;2023-06-26T07:54:15;65.51;43.96;77.09;;
58251;Laerm;51449;51.676;5.812;2023-06-26T07:56:59;62.83;42.48;75.00;;
58251;Laerm;51449;51.676;5.812;2023-06-26T07:59:22;63.55;51.08;76.31;;
58251;Laerm;51449;51.676;5.812;2023-06-26T08:01:44;68.29;45.83;83.02;;
58251;Laerm;51449;51.676;5.812;2023-06-26T08:04:06;71.38;48.59;85.28;;
58251;Laerm;51449;51.676;5.812;2023-06-26T08:06:28;72.95;46.60;86.37;;
58251;Laerm;51449;51.676;5.812;2023-06-26T08:08:50;72.05;43.90;85.58;;
58251;Laerm;51449;51.676;5.812;2023-06-26T08:11:11;69.50;44.74;84.43;;
58251;Laerm;51449;51.676;5.812;2023-06-26T08:13:33;69.85;43.62;84.29;;
58251;Laerm;51449;51.676;5.812;2023-06-26T08:15:55;62.25;40.31;72.67;;
58251;Laerm;51449;51.676;5.812;2023-06-26T08:18:18;58.74;37.82;70.19;;
58251;Laerm;51449;51.676;5.812;2023-06-26T08:20:40;63.44;46.59;79.29;;
58251;Laerm;51449;51.676;5.812;2023-06-26T08:23:01;69.55;45.73;84.72;;
58251;Laerm;51449;51.676;5.812;2023-06-26T08:25:23;72.85;49.57;85.75;;
58251;Laerm;51449;51.676;5.812;2023-06-26T08:27:45;71.27;47.32;85.88;;
58251;Laerm;51449;51.676;5.812;2023-06-26T08:30:07;71.28;48.46;85.55;;
58251;Laerm;51449;51.676;5.812;2023-06-26T08:32:29;66.47;49.79;82.78;;
58251;Laerm;51449;51.676;5.812;2023-06-26T08:34:51;65.10;49.59;80.51;;
58251;Laerm;51449;51.676;5.812;2023-06-26T08:37:13;69.10;46.57;84.46;;
58251;Laerm;51449;51.676;5.812;2023-06-26T08:39:35;71.12;50.12;85.12;;
58251;Laerm;51449;51.676;5.812;2023-06-26T08:41:57;63.89;48.55;83.36;;
58251;Laerm;51449;51.676;5.812;2023-06-26T08:44:19;61.14;45.75;75.42;;
58251;Laerm;51449;51.676;5.812;2023-06-26T08:46:45;65.60;51.97;81.80;;
58251;Laerm;51449;51.676;5.812;2023-06-26T08:49:21;72.15;52.41;85.50;;
58251;Laerm;51449;51.676;5.812;2023-06-26T08:51:58;71.40;53.88;84.27;;
58251;Laerm;51449;51.676;5.812;2023-06-26T08:54:26;71.32;54.26;85.07;;
58251;Laerm;51449;51.676;5.812;2023-06-26T08:56:50;67.92;54.46;82.45;;
58251;Laerm;51449;51.676;5.812;2023-06-26T08:59:13;65.64;44.76;78.20;;
58251;Laerm;51449;51.676;5.812;2023-06-26T09:01:37;66.74;45.22;79.90;;
58251;Laerm;51449;51.676;5.812;2023-06-26T09:04:00;66.88;44.59;80.91;;
58251;Laerm;51449;51.676;5.812;2023-06-26T09:06:21;62.61;43.47;75.06;;
58251;Laerm;51449;51.676;5.812;2023-06-26T09:08:44;61.04;45.38;73.42;;
58251;Laerm;51449;51.676;5.812;2023-06-26T09:11:05;58.79;43.55;72.38;;
58251;Laerm;51449;51.676;5.812;2023-06-26T09:13:31;67.45;43.83;81.52;;
58251;Laerm;51449;51.676;5.812;2023-06-26T09:15:54;63.25;49.67;73.50;;
58251;Laerm;51449;51.676;5.812;2023-06-26T09:18:18;68.77;49.21;85.60;;
58251;Laerm;51449;51.676;5.812;2023-06-26T09:20:41;71.23;49.33;86.11;;
58251;Laerm;51449;51.676;5.812;2023-06-26T09:23:03;68.00;53.87;80.89;;
58251;Laerm;51449;51.676;5.812;2023-06-26T09:25:26;66.06;49.33;78.81;;
58251;Laerm;51449;51.676;5.812;2023-06-26T09:27:49;65.35;49.58;78.32;;
58251;Laerm;51449;51.676;5.812;2023-06-26T09:30:11;65.44;47.68;85.80;;
58251;Laerm;51449;51.676;5.812;2023-06-26T09:32:36;67.86;48.61;86.45;;
58251;Laerm;51449;51.676;5.812;2023-06-26T09:34:58;67.96;50.67;83.62;;
58251;Laerm;51449;51.676;5.812;2023-06-26T09:37:22;62.63;51.60;74.57;;
58251;Laerm;51449;51.676;5.812;2023-06-26T09:39:46;67.29;50.12;84.71;;
58251;Laerm;51449;51.676;5.812;2023-06-26T09:42:08;70.55;49.95;84.83;;
58251;Laerm;51449;51.676;5.812;2023-06-26T09:44:31;69.68;51.12;85.68;;
58251;Laerm;51449;51.676;5.812;2023-06-26T09:46:54;64.13;50.12;79.41;;
58251;Laerm;51449;51.676;5.812;2023-06-26T09:49:16;63.74;51.14;73.07;;
58251;Laerm;51449;51.676;5.812;2023-06-26T09:51:41;60.04;49.40;74.41;;
58251;Laerm;51449;51.676;5.812;2023-06-26T09:54:05;61.23;50.66;70.48;;
58251;Laerm;51449;51.676;5.812;2023-06-26T09:56:29;61.98;51.45;77.27;;
58251;Laerm;51449;51.676;5.812;2023-06-26T09:58:51;65.99;53.62;78.62;;
58251;Laerm;51449;51.676;5.812;2023-06-26T10:01:14;65.28;50.96;74.39;;
58251;Laerm;51449;51.676;5.812;2023-06-26T10:03:36;66.92;50.53;79.18;;
58251;Laerm;51449;51.676;5.812;2023-06-26T10:06:00;60.46;46.71;74.46;;
58251;Laerm;51449;51.676;5.812;2023-06-26T10:08:22;65.42;50.08;76.99;;
58251;Laerm;51449;51.676;5.812;2023-06-26T10:10:46;70.90;45.56;86.01;;
58251;Laerm;51449;51.676;5.812;2023-06-26T10:13:21;69.46;50.97;84.40;;
58251;Laerm;51449;51.676;5.812;2023-06-26T10:15:46;63.86;51.96;73.95;;
58251;Laerm;51449;51.676;5.812;2023-06-26T10:18:09;61.62;46.74;73.69;;
58251;Laerm;51449;51.676;5.812;2023-06-26T10:20:32;66.63;48.77;80.94;;
58251;Laerm;51449;51.676;5.812;2023-06-26T10:22:57;68.91;50.70;85.56;;
58251;Laerm;51449;51.676;5.812;2023-06-26T10:25:24;72.22;46.29;86.19;;
58251;Laerm;51449;51.676;5.812;2023-06-26T10:27:55;71.83;45.06;87.39;;
58251;Laerm;51449;51.676;5.812;2023-06-26T10:30:28;64.51;49.36;82.56;;
58251;Laerm;51449;51.676;5.812;2023-06-26T10:32:51;63.00;50.59;77.83;;
58251;Laerm;51449;51.676;5.812;2023-06-26T10:35:13;68.26;48.60;82.62;;
58251;Laerm;51449;51.676;5.812;2023-06-26T10:37:48;66.25;54.28;81.26;;
58251;Laerm;51449;51.676;5.812;2023-06-26T10:40:11;63.87;49.16;76.58;;
58251;Laerm;51449;51.676;5.812;2023-06-26T10:42:38;64.79;52.93;76.15;;
58251;Laerm;51449;51.676;5.812;2023-06-26T10:45:16;65.29;52.77;75.40;;
58251;Laerm;51449;51.676;5.812;2023-06-26T10:47:40;65.37;49.96;77.18;;
58251;Laerm;51449;51.676;5.812;2023-06-26T10:52:45;63.89;50.93;73.39;;
58251;Laerm;51449;51.676;5.812;2023-06-26T10:55:08;68.20;48.27;84.32;;
58251;Laerm;51449;51.676;5.812;2023-06-26T10:57:30;69.90;47.46;84.92;;
58251;Laerm;51449;51.676;5.812;2023-06-26T11:00:18;68.80;48.38;85.25;;
58251;Laerm;51449;51.676;5.812;2023-06-26T11:02:50;64.75;51.09;73.73;;
58251;Laerm;51449;51.676;5.812;2023-06-26T11:05:24;62.92;45.31;80.22;;
58251;Laerm;51449;51.676;5.812;2023-06-26T11:10:25;71.22;51.82;87.89;;
58251;Laerm;51449;51.676;5.812;2023-06-26T11:12:47;64.33;50.39;79.33;;
58251;Laerm;51449;51.676;5.812;2023-06-26T11:15:12;66.44;51.59;79.72;;
58251;Laerm;51449;51.676;5.812;2023-06-26T11:17:37;68.57;46.89;85.44;;
58251;Laerm;51449;51.676;5.812;2023-06-26T11:19:59;63.24;52.61;74.96;;
58251;Laerm;51449;51.676;5.812;2023-06-26T11:22:25;65.17;49.02;74.20;;
58251;Laerm;51449;51.676;5.812;2023-06-26T11:24:53;69.18;49.66;85.52;;
58251;Laerm;51449;51.676;5.812;2023-06-26T11:27:15;67.84;48.32;84.20;;
58251;Laerm;51449;51.676;5.812;2023-06-26T11:29:37;66.68;50.53;78.10;;
58251;Laerm;51449;51.676;5.812;2023-06-26T11:32:01;64.85;48.75;76.44;;
58251;Laerm;51449;51.676;5.812;2023-06-26T11:34:30;64.86;47.84;78.35;;
58251;Laerm;51449;51.676;5.812;2023-06-26T11:36:52;63.89;50.33;74.57;;
58251;Laerm;51449;51.676;5.812;2023-06-26T11:39:14;64.88;50.95;78.63;;
58251;Laerm;51449;51.676;5.812;2023-06-26T11:41:38;66.41;50.17;80.27;;
58251;Laerm;51449;51.676;5.812;2023-06-26T11:44:05;63.95;45.53;74.01;;
58251;Laerm;51449;51.676;5.812;2023-06-26T11:46:28;67.68;51.75;83.25;;
58251;Laerm;51449;51.676;5.812;2023-06-26T11:48:49;66.80;53.59;76.93;;
58251;Laerm;51449;51.676;5.812;2023-06-26T11:51:17;63.54;46.33;72.63;;
58251;Laerm;51449;51.676;5.812;2023-06-26T11:53:47;63.19;46.56;73.79;;
58251;Laerm;51449;51.676;5.812;2023-06-26T11:56:15;64.22;45.40;78.93;;
58251;Laerm;51449;51.676;5.812;2023-06-26T11:59:05;66.91;46.09;80.44;;
58251;Laerm;51449;51.676;5.812;2023-06-26T12:01:42;68.47;48.21;80.02;;
58251;Laerm;51449;51.676;5.812;2023-06-26T12:04:10;65.79;53.47;78.87;;
58251;Laerm;51449;51.676;5.812;2023-06-26T12:06:43;63.84;52.34;78.66;;
58251;Laerm;51449;51.676;5.812;2023-06-26T12:09:11;63.81;54.12;73.56;;
58251;Laerm;51449;51.676;5.812;2023-06-26T12:11:35;64.78;49.96;86.30;;
58251;Laerm;51449;51.676;5.812;2023-06-26T12:13:59;65.89;55.29;75.96;;
58251;Laerm;51449;51.676;5.812;2023-06-26T12:16:22;62.89;51.20;75.85;;
58251;Laerm;51449;51.676;5.812;2023-06-26T12:18:43;64.97;51.75;74.53;;
58251;Laerm;51449;51.676;5.812;2023-06-26T12:21:05;64.90;48.34;75.89;;
58251;Laerm;51449;51.676;5.812;2023-06-26T12:23:39;67.14;49.89;82.99;;
58251;Laerm;51449;51.676;5.812;2023-06-26T12:26:19;71.58;47.97;87.20;;
58251;Laerm;51449;51.676;5.812;2023-06-26T12:28:44;66.72;46.61;86.05;;
58251;Laerm;51449;51.676;5.812;2023-06-26T12:31:20;66.23;45.81;80.26;;
58251;Laerm;51449;51.676;5.812;2023-06-26T12:33:52;61.96;46.85;73.01;;
58251;Laerm;51449;51.676;5.812;2023-06-26T12:36:14;64.33;50.89;74.87;;
58251;Laerm;51449;51.676;5.812;2023-06-26T12:38:46;64.41;47.53;72.77;;
58251;Laerm;51449;51.676;5.812;2023-06-26T12:41:15;64.83;51.86;73.30;;
58251;Laerm;51449;51.676;5.812;2023-06-26T12:43:38;69.56;43.27;83.90;;
58251;Laerm;51449;51.676;5.812;2023-06-26T12:46:01;68.04;49.78;82.82;;
58251;Laerm;51449;51.676;5.812;2023-06-26T12:48:43;67.10;49.44;79.96;;
58251;Laerm;51449;51.676;5.812;2023-06-26T12:51:12;59.78;46.69;70.29;;
58251;Laerm;51449;51.676;5.812;2023-06-26T12:53:34;62.22;48.15;79.15;;
58251;Laerm;51449;51.676;5.812;2023-06-26T12:55:58;66.91;52.44;79.62;;
58251;Laerm;51449;51.676;5.812;2023-06-26T12:58:19;63.76;47.87;77.76;;
58251;Laerm;51449;51.676;5.812;2023-06-26T13:00:42;71.19;47.83;87.82;;
58251;Laerm;51449;51.676;5.812;2023-06-26T13:03:04;72.79;50.29;86.97;;
58251;Laerm;51449;51.676;5.812;2023-06-26T13:05:26;71.42;47.79;86.82;;
58251;Laerm;51449;51.676;5.812;2023-06-26T13:07:48;67.51;50.16;86.34;;
58251;Laerm;51449;51.676;5.812;2023-06-26T13:10:10;64.98;49.55;74.36;;
58251;Laerm;51449;51.676;5.812;2023-06-26T13:12:31;63.49;50.74;75.62;;
58251;Laerm;51449;51.676;5.812;2023-06-26T13:14:53;67.48;50.80;80.25;;
58251;Laerm;51449;51.676;5.812;2023-06-26T13:17:15;68.40;51.08;82.37;;
58251;Laerm;51449;51.676;5.812;2023-06-26T13:19:37;65.19;50.87;78.78;;
58251;Laerm;51449;51.676;5.812;2023-06-26T13:21:58;65.21;49.34;76.71;;
58251;Laerm;51449;51.676;5.812;2023-06-26T13:24:21;64.49;48.81;74.06;;
58251;Laerm;51449;51.676;5.812;2023-06-26T13:26:43;64.60;45.30;77.20;;
58251;Laerm;51449;51.676;5.812;2023-06-26T13:29:05;62.95;43.55;75.73;;
58251;Laerm;51449;51.676;5.812;2023-06-26T13:31:27;63.07;50.75;73.23;;
58251;Laerm;51449;51.676;5.812;2023-06-26T13:33:49;66.04;52.21;74.63;;
58251;Laerm;51449;51.676;5.812;2023-06-26T13:36:12;65.76;50.08;81.40;;
58251;Laerm;51449;51.676;5.812;2023-06-26T13:38:33;66.48;51.04;79.85;;